Time;durP1;ratioP1;P1;durP2;ratioP2;P2;SDS_P1;SDS_P2;PMS_P1;PMS_P2;Temp;Humidity;BMP_temperature;BMP_pressure;BME280_temperature;BME280_humidity;BME280_pressure;Samples;Min_cycle;Max_cycle;Signal;HPM_P1;HPM_P2
2022/11/18 00:01:28;;;;;;;15.40;7.93;;;2.80;98.10;;;;;;5065285;28;20032;-75
2022/11/18 00:03:53;;;;;;;15.43;7.75;;;2.80;98.00;;;;;;5068877;28;20033;-73
2022/11/18 00:06:21;;;;;;;11.80;6.03;;;2.80;98.00;;;;;;5065863;28;20033;-72
2022/11/18 00:08:47;;;;;;;13.80;7.60;;;2.80;97.90;;;;;;5064122;28;20048;-72
2022/11/18 00:14:23;;;;;;;14.98;8.38;;;2.70;97.90;;;;;;5060835;28;20040;-72
2022/11/18 00:16:53;;;;;;;14.70;8.25;;;2.70;97.90;;;;;;5062625;28;20023;-72
2022/11/18 00:19:20;;;;;;;17.23;9.15;;;2.70;97.90;;;;;;5068242;28;20032;-73
2022/11/18 00:21:46;;;;;;;14.63;8.68;;;2.70;97.80;;;;;;5066902;28;20024;-74
2022/11/18 00:24:11;;;;;;;15.85;8.18;;;2.70;97.90;;;;;;5066973;28;20028;-73
2022/11/18 00:26:37;;;;;;;12.32;6.88;;;2.70;97.80;;;;;;5066169;28;20025;-72
2022/11/18 00:29:03;;;;;;;17.08;8.45;;;2.70;97.70;;;;;;5070250;28;20037;-73
2022/11/18 00:31:29;;;;;;;15.63;6.50;;;2.70;97.90;;;;;;5062077;28;20040;-73
2022/11/18 00:33:55;;;;;;;15.27;8.80;;;2.60;97.90;;;;;;5067787;28;20039;-72
2022/11/18 00:36:20;;;;;;;14.90;8.63;;;2.60;97.80;;;;;;5067556;28;20029;-72
2022/11/18 00:38:46;;;;;;;16.25;8.55;;;2.60;97.90;;;;;;5067906;28;20056;-74
2022/11/18 00:41:13;;;;;;;14.88;8.43;;;2.70;97.90;;;;;;5061554;28;20486;-74
2022/11/18 00:43:39;;;;;;;13.70;7.60;;;2.70;97.90;;;;;;5067335;28;20036;-72
2022/11/18 00:46:07;;;;;;;15.18;8.85;;;2.60;97.80;;;;;;5066240;28;20052;-74
2022/11/18 00:48:33;;;;;;;15.10;7.78;;;2.60;97.70;;;;;;5082671;28;20020;-73
2022/11/18 00:51:10;;;;;;;14.63;8.68;;;2.60;97.80;;;;;;5067725;28;20051;-72
2022/11/18 00:53:36;;;;;;;15.70;7.90;;;2.60;97.90;;;;;;5075463;28;20032;-75
2022/11/18 00:56:01;;;;;;;15.23;7.93;;;2.60;98.00;;;;;;5059265;28;20091;-72
2022/11/18 00:58:28;;;;;;;15.85;8.70;;;2.60;98.00;;;;;;5060280;28;20032;-71
2022/11/18 01:00:54;;;;;;;13.02;7.20;;;2.60;98.00;;;;;;5071278;28;20021;-71
2022/11/18 01:03:20;;;;;;;14.45;8.57;;;2.60;98.00;;;;;;5073394;28;20034;-73
2022/11/18 01:05:46;;;;;;;15.30;8.18;;;2.50;97.90;;;;;;5087815;28;20372;-71
2022/11/18 01:08:12;;;;;;;15.65;9.05;;;2.50;97.90;;;;;;5068535;28;20033;-72
2022/11/18 01:10:39;;;;;;;12.25;6.63;;;2.50;97.80;;;;;;5070879;28;20039;-71
2022/11/18 01:13:18;;;;;;;15.55;8.32;;;2.40;97.70;;;;;;5066970;28;20029;-71
2022/11/18 01:15:46;;;;;;;14.88;8.40;;;2.50;97.70;;;;;;5068882;28;20028;-72
2022/11/18 01:18:12;;;;;;;15.75;9.25;;;2.50;97.70;;;;;;5064630;28;20526;-71
2022/11/18 01:20:37;;;;;;;11.57;7.10;;;2.50;97.60;;;;;;5068019;28;20340;-71
2022/11/18 01:23:03;;;;;;;14.50;8.65;;;2.40;97.70;;;;;;5070760;28;20028;-71
2022/11/18 01:25:29;;;;;;;15.07;8.88;;;2.40;97.70;;;;;;5074470;28;20032;-72
2022/11/18 01:27:55;;;;;;;16.55;8.95;;;2.40;97.80;;;;;;5080929;28;20112;-73
2022/11/18 01:30:22;;;;;;;13.00;7.47;;;2.40;97.90;;;;;;5072521;28;20500;-71
2022/11/18 01:32:47;;;;;;;17.30;9.35;;;2.40;97.80;;;;;;5070617;28;20499;-71
2022/11/18 01:35:13;;;;;;;15.35;8.07;;;2.40;97.90;;;;;;5071231;28;20040;-71
2022/11/18 01:37:39;;;;;;;16.30;8.82;;;2.40;98.00;;;;;;5072797;28;20445;-72
2022/11/18 01:40:07;;;;;;;16.55;9.68;;;2.30;97.80;;;;;;5068456;28;20036;-71
2022/11/18 01:42:32;;;;;;;16.23;8.35;;;2.40;98.00;;;;;;5070709;28;20047;-72
2022/11/18 01:45:16;;;;;;;20.27;9.55;;;2.30;97.90;;;;;;5071337;28;20033;-72
2022/11/18 01:47:57;;;;;;;16.77;8.80;;;2.30;97.80;;;;;;5065032;28;20056;-71
2022/11/18 01:50:24;;;;;;;15.85;8.75;;;2.30;97.90;;;;;;5069109;28;20427;-71
2022/11/18 01:52:51;;;;;;;14.13;8.13;;;2.30;97.90;;;;;;5069508;28;20040;-73
2022/11/18 01:55:23;;;;;;;18.02;9.60;;;2.30;97.90;;;;;;5067851;28;20373;-71
2022/11/18 01:57:50;;;;;;;13.20;7.55;;;2.30;97.90;;;;;;5066753;28;20028;-74
2022/11/18 02:00:16;;;;;;;15.75;8.90;;;2.30;97.90;;;;;;5070856;28;20031;-71
2022/11/18 02:02:42;;;;;;;15.95;8.68;;;2.30;98.00;;;;;;5069058;28;20045;-72
2022/11/18 02:05:09;;;;;;;14.50;8.63;;;2.30;97.90;;;;;;5072290;28;20028;-72
2022/11/18 02:07:41;;;;;;;16.42;9.50;;;2.30;97.90;;;;;;5069158;28;20021;-71
2022/11/18 02:10:09;;;;;;;16.02;8.48;;;2.20;97.90;;;;;;5070704;28;20138;-71
2022/11/18 02:12:35;;;;;;;18.30;9.55;;;2.30;97.90;;;;;;5064671;28;20032;-71
2022/11/18 02:15:02;;;;;;;15.90;8.85;;;2.20;97.80;;;;;;5066184;28;20055;-72
2022/11/18 02:17:52;;;;;;;14.70;9.13;;;2.20;97.80;;;;;;5072835;28;20362;-73
2022/11/18 02:20:39;;;;;;;15.80;8.95;;;2.20;97.80;;;;;;5067249;28;20025;-71
2022/11/18 02:23:39;;;;;;;16.15;9.18;;;2.20;97.80;;;;;;5066750;28;20024;-71
2022/11/18 02:26:13;;;;;;;15.48;8.45;;;2.10;97.50;;;;;;5071062;28;20322;-74
2022/11/18 02:29:01;;;;;;;18.27;9.23;;;2.20;97.70;;;;;;5068814;28;20345;-73
2022/11/18 02:31:35;;;;;;;18.30;9.38;;;2.20;97.70;;;;;;5062754;28;20032;-73
2022/11/18 02:34:12;;;;;;;20.63;10.38;;;2.10;97.80;;;;;;5079421;28;20040;-72
2022/11/18 02:36:48;;;;;;;16.08;9.13;;;2.10;97.80;;;;;;5068754;28;20052;-71
2022/11/18 02:39:20;;;;;;;18.05;9.73;;;2.20;97.90;;;;;;5063127;28;20024;-71
2022/11/18 02:41:48;;;;;;;16.17;8.60;;;2.10;97.60;;;;;;5066678;28;20024;-71
2022/11/18 02:44:20;;;;;;;15.38;9.88;;;2.10;97.60;;;;;;5068368;28;20037;-73
2022/11/18 02:46:51;;;;;;;16.08;9.43;;;2.10;97.70;;;;;;5061528;28;20050;-71
2022/11/18 02:49:50;;;;;;;19.65;10.20;;;2.10;97.70;;;;;;5070018;28;20037;-71
2022/11/18 02:52:17;;;;;;;19.08;10.75;;;2.10;97.70;;;;;;5075880;28;20040;-71
2022/11/18 02:54:46;;;;;;;17.65;10.00;;;2.10;97.70;;;;;;5065736;28;20056;-74
2022/11/18 02:57:13;;;;;;;15.57;9.63;;;2.10;97.80;;;;;;5062729;28;20428;-72
2022/11/18 02:59:38;;;;;;;16.23;9.30;;;2.10;97.70;;;;;;5066791;28;20013;-74
2022/11/18 03:02:04;;;;;;;18.00;9.88;;;2.10;97.70;;;;;;5069309;28;20036;-71
2022/11/18 03:04:31;;;;;;;18.88;10.10;;;2.10;97.70;;;;;;5069660;28;20115;-71
2022/11/18 03:07:21;;;;;;;17.70;10.15;;;2.10;97.80;;;;;;5067227;28;20035;-71
2022/11/18 03:09:51;;;;;;;16.42;8.45;;;2.00;97.70;;;;;;5072472;28;20025;-72
2022/11/18 03:12:43;;;;;;;13.75;8.10;;;2.00;97.70;;;;;;5063617;28;20043;-71
2022/11/18 03:15:24;;;;;;;16.02;9.00;;;1.90;97.60;;;;;;5071886;28;20031;-71
2022/11/18 03:18:26;;;;;;;17.38;9.65;;;1.90;97.60;;;;;;5071808;28;20025;-72
2022/11/18 03:23:29;;;;;;;16.63;10.07;;;2.00;97.60;;;;;;4994332;28;20050;-72
2022/11/18 03:26:00;;;;;;;16.33;9.27;;;2.00;97.50;;;;;;5003090;28;20026;-72
2022/11/18 03:28:35;;;;;;;16.42;9.55;;;1.90;97.60;;;;;;5001615;28;20076;-71
2022/11/18 03:31:28;;;;;;;16.33;9.35;;;1.90;97.50;;;;;;5006156;28;20721;-74
2022/11/18 03:34:00;;;;;;;13.50;7.93;;;1.90;97.50;;;;;;5003900;28;20302;-75
2022/11/18 03:36:31;;;;;;;17.23;9.25;;;1.80;97.40;;;;;;5002663;28;20129;-73
2022/11/18 03:39:00;;;;;;;15.88;8.82;;;1.80;97.50;;;;;;5008037;28;20463;-74
2022/11/18 03:41:30;;;;;;;15.73;9.63;;;1.80;97.50;;;;;;4998067;28;20453;-74
2022/11/18 03:44:03;;;;;;;16.05;9.75;;;1.80;97.50;;;;;;5005063;28;20057;-74
2022/11/18 03:46:37;;;;;;;18.77;10.93;;;1.80;97.60;;;;;;5009082;28;20108;-74
2022/11/18 03:49:05;;;;;;;18.58;10.07;;;1.80;97.50;;;;;;4991180;28;20065;-74
2022/11/18 03:51:37;;;;;;;20.13;10.27;;;1.80;97.40;;;;;;5006591;28;20119;-74
2022/11/18 03:54:10;;;;;;;17.67;10.10;;;1.80;97.50;;;;;;5002534;28;20042;-74
2022/11/18 03:56:41;;;;;;;17.75;10.65;;;1.70;97.50;;;;;;5006493;28;20116;-73
2022/11/18 03:59:20;;;;;;;17.88;11.02;;;1.80;97.60;;;;;;4998525;28;20489;-74
2022/11/18 04:01:55;;;;;;;18.25;10.18;;;1.70;97.60;;;;;;5007035;28;20398;-74
2022/11/18 04:04:21;;;;;;;18.52;10.98;;;1.70;97.50;;;;;;4989787;28;20249;-74
2022/11/18 04:07:03;;;;;;;19.17;10.60;;;1.70;97.60;;;;;;5004261;28;20109;-74
2022/11/18 04:09:43;;;;;;;18.85;11.02;;;1.70;97.60;;;;;;5007752;28;20060;-72
2022/11/18 04:12:14;;;;;;;20.15;10.98;;;1.70;97.60;;;;;;5004782;28;20083;-73
2022/11/18 04:14:41;;;;;;;;;;;1.80;97.70;;;;;;5000301;28;20058;-73
2022/11/18 04:17:19;;;;;;;18.63;10.32;;;1.70;97.60;;;;;;5005106;28;19949;-73
2022/11/18 04:19:44;;;;;;;20.17;11.90;;;1.70;97.60;;;;;;5006375;28;20037;-73
2022/11/18 04:22:10;;;;;;;19.15;11.60;;;1.70;97.30;;;;;;4999607;28;20050;-73
2022/11/18 04:24:36;;;;;;;21.80;12.30;;;1.80;97.60;;;;;;4996693;28;20100;-73
2022/11/18 04:27:02;;;;;;;23.60;12.48;;;1.70;97.30;;;;;;5006057;28;20375;-73
2022/11/18 04:29:29;;;;;;;23.88;12.18;;;1.70;97.30;;;;;;5000709;28;20041;-73
2022/11/18 04:31:54;;;;;;;21.15;11.98;;;1.60;97.20;;;;;;5000707;28;20056;-74
2022/11/18 04:34:20;;;;;;;22.52;13.20;;;1.70;97.30;;;;;;5003969;28;20078;-73
2022/11/18 04:36:45;;;;;;;22.25;12.20;;;1.70;97.40;;;;;;5005184;28;20077;-74
2022/11/18 04:39:11;;;;;;;23.02;13.27;;;1.60;97.20;;;;;;5006299;28;20070;-73
2022/11/18 04:41:55;;;;;;;22.05;12.43;;;1.60;97.10;;;;;;5002853;28;20370;-73
2022/11/18 04:44:29;;;;;;;22.60;13.10;;;1.60;97.10;;;;;;5001974;28;20138;-74
2022/11/18 04:46:56;;;;;;;22.88;12.90;;;1.70;97.20;;;;;;5004439;28;20030;-73
2022/11/18 04:49:22;;;;;;;21.20;12.38;;;1.70;97.20;;;;;;5004104;28;20077;-73
2022/11/18 04:51:48;;;;;;;22.50;12.77;;;1.70;97.20;;;;;;5002736;28;20049;-74
2022/11/18 04:54:14;;;;;;;21.45;12.50;;;1.70;97.30;;;;;;5002626;28;20050;-74
2022/11/18 04:56:41;;;;;;;23.45;13.10;;;1.70;97.20;;;;;;5001340;28;20026;-74
2022/11/18 04:59:06;;;;;;;20.05;11.90;;;1.60;97.20;;;;;;4990229;28;20169;-73
2022/11/18 05:01:32;;;;;;;20.73;12.35;;;1.60;97.30;;;;;;5003377;28;20065;-73
2022/11/18 05:04:00;;;;;;;23.05;12.07;;;1.70;97.20;;;;;;5011967;28;20498;-73
2022/11/18 05:06:25;;;;;;;18.75;11.15;;;1.60;97.20;;;;;;4993177;28;20191;-73
2022/11/18 05:08:52;;;;;;;23.00;11.93;;;1.70;97.20;;;;;;5004832;28;20414;-73
2022/11/18 05:14:01;;;;;;;21.10;11.73;;;1.60;97.20;;;;;;5005116;28;20110;-74
2022/11/18 05:16:27;;;;;;;23.17;12.82;;;1.60;97.00;;;;;;4992075;28;20192;-74
2022/11/18 05:18:52;;;;;;;25.73;13.68;;;1.60;97.10;;;;;;5011260;28;20037;-72
2022/11/18 05:21:18;;;;;;;23.63;13.32;;;1.60;97.10;;;;;;5010259;28;20049;-73
2022/11/18 05:23:44;;;;;;;23.02;13.55;;;1.60;97.20;;;;;;5009110;28;20080;-73
2022/11/18 05:26:10;;;;;;;26.40;13.95;;;1.50;97.00;;;;;;4992142;28;20033;-74
2022/11/18 05:28:37;;;;;;;24.10;13.63;;;1.60;97.10;;;;;;5005493;28;20120;-77
2022/11/18 05:31:10;;;;;;;26.73;14.95;;;1.60;97.20;;;;;;5009283;28;20034;-77
2022/11/18 05:33:37;;;;;;;26.15;15.60;;;1.50;97.00;;;;;;5009261;28;20026;-77
2022/11/18 05:36:21;;;;;;;29.08;15.48;;;1.50;96.90;;;;;;5003829;28;20045;-77
2022/11/18 05:38:48;;;;;;;25.27;14.77;;;1.50;96.90;;;;;;5004743;28;20038;-77
2022/11/18 05:44:08;;;;;;;24.70;14.02;;;1.50;96.80;;;;;;4919129;28;20454;-76
2022/11/18 05:46:34;;;;;;;28.58;15.48;;;1.50;96.90;;;;;;5004268;28;20045;-76
2022/11/18 05:48:59;;;;;;;23.48;13.73;;;1.50;96.90;;;;;;5010562;28;20465;-76
2022/11/18 05:51:24;;;;;;;25.55;14.63;;;1.50;96.80;;;;;;5005494;28;20099;-77
2022/11/18 05:53:51;;;;;;;24.85;14.32;;;1.50;96.80;;;;;;5001055;28;20053;-77
2022/11/18 05:56:20;;;;;;;25.55;14.18;;;1.40;96.70;;;;;;5005829;28;20026;-76
2022/11/18 05:58:45;;;;;;;26.88;14.55;;;1.50;96.70;;;;;;5006329;28;20092;-76
2022/11/18 06:01:14;;;;;;;26.33;15.60;;;1.40;96.60;;;;;;4999646;28;20395;-76
2022/11/18 06:03:40;;;;;;;26.10;14.40;;;1.40;96.60;;;;;;5004821;28;20463;-75
2022/11/18 06:06:07;;;;;;;27.70;14.90;;;1.40;96.70;;;;;;5002058;28;20046;-77
2022/11/18 06:08:45;;;;;;;25.75;14.13;;;1.50;96.60;;;;;;5005786;28;20026;-73
2022/11/18 06:11:12;;;;;;;25.58;15.50;;;1.50;96.70;;;;;;5009644;28;20045;-74
2022/11/18 06:13:48;;;;;;;28.05;14.35;;;1.40;96.60;;;;;;5010131;28;20034;-72
2022/11/18 06:16:14;;;;;;;26.88;15.45;;;1.50;96.70;;;;;;5004942;28;20034;-73
2022/11/18 06:18:40;;;;;;;25.50;14.63;;;1.40;96.60;;;;;;4988479;28;20041;-73
2022/11/18 06:21:06;;;;;;;26.60;14.98;;;1.40;96.50;;;;;;4987256;28;20494;-73
2022/11/18 06:23:34;;;;;;;28.95;15.70;;;1.40;96.60;;;;;;4990975;28;20072;-73
2022/11/18 06:26:00;;;;;;;26.10;15.00;;;1.40;96.70;;;;;;4999685;28;20062;-73
2022/11/18 06:28:26;;;;;;;28.17;16.15;;;1.40;96.70;;;;;;5003399;28;20591;-73
2022/11/18 06:30:52;;;;;;;27.33;15.02;;;1.40;96.60;;;;;;5009916;28;20474;-77
2022/11/18 06:33:17;;;;;;;27.67;15.63;;;1.40;96.60;;;;;;5004337;28;20061;-77
2022/11/18 06:35:43;;;;;;;26.92;15.80;;;1.40;96.70;;;;;;5008940;28;20038;-77
2022/11/18 06:38:08;;;;;;;28.15;16.23;;;1.30;96.60;;;;;;5003735;28;20026;-77
2022/11/18 06:40:36;;;;;;;28.55;16.35;;;1.40;96.60;;;;;;4990190;28;20030;-77
2022/11/18 06:48:34;;;;;;;28.13;16.10;;;1.30;96.70;;;;;;5010129;28;20402;-76
2022/11/18 06:51:04;;;;;;;30.02;15.05;;;1.30;96.60;;;;;;5003882;28;20041;-77
2022/11/18 06:53:29;;;;;;;29.70;16.52;;;1.30;96.80;;;;;;4990539;28;20367;-76
2022/11/18 06:55:54;;;;;;;28.40;17.13;;;1.40;96.70;;;;;;5010079;28;20037;-76
2022/11/18 06:58:20;;;;;;;27.52;16.50;;;1.30;96.60;;;;;;4999129;28;20038;-76
2022/11/18 07:00:45;;;;;;;30.50;16.58;;;1.30;96.80;;;;;;5010264;28;20030;-76
2022/11/18 07:03:11;;;;;;;28.20;15.88;;;1.30;96.90;;;;;;5005906;28;20383;-76
2022/11/18 07:05:37;;;;;;;30.42;17.58;;;1.30;96.80;;;;;;4992566;28;20026;-76
2022/11/18 07:08:02;;;;;;;28.75;17.00;;;1.20;96.50;;;;;;5008729;28;20026;-76
2022/11/18 07:10:28;;;;;;;30.08;17.13;;;1.30;96.80;;;;;;5006903;28;20040;-77
2022/11/18 07:12:53;;;;;;;30.13;17.58;;;1.30;96.80;;;;;;5001977;28;20032;-76
2022/11/18 07:15:19;;;;;;;28.60;17.13;;;1.20;96.70;;;;;;5009173;28;20061;-76
2022/11/18 07:17:44;;;;;;;31.38;17.60;;;1.30;96.90;;;;;;5008017;28;20021;-76
2022/11/18 07:20:10;;;;;;;29.48;17.45;;;1.10;96.50;;;;;;5012263;28;20057;-76
2022/11/18 07:22:35;;;;;;;30.60;17.88;;;1.20;96.80;;;;;;5012872;28;20505;-75
2022/11/18 07:25:01;;;;;;;29.20;17.15;;;1.10;96.50;;;;;;5006882;28;20030;-76
2022/11/18 07:27:26;;;;;;;31.38;18.48;;;1.10;96.70;;;;;;5009103;28;20367;-76
2022/11/18 07:29:52;;;;;;;29.80;17.30;;;1.10;96.70;;;;;;5010381;28;20170;-76
2022/11/18 07:32:17;;;;;;;30.95;17.65;;;1.20;96.80;;;;;;5008629;28;20029;-76
2022/11/18 07:34:43;;;;;;;30.80;17.63;;;1.20;96.80;;;;;;5007874;28;20045;-76
2022/11/18 07:37:09;;;;;;;30.90;16.73;;;1.10;96.70;;;;;;5008518;28;20458;-76
2022/11/18 07:39:34;;;;;;;30.60;17.83;;;1.10;96.70;;;;;;5009700;28;20057;-76
2022/11/18 07:42:00;;;;;;;28.90;16.90;;;1.10;96.60;;;;;;5005440;28;20467;-76
2022/11/18 07:44:25;;;;;;;29.25;16.95;;;1.10;96.70;;;;;;5006303;28;20124;-76
2022/11/18 07:46:51;;;;;;;28.80;16.45;;;1.10;96.60;;;;;;5007163;28;20064;-76
2022/11/18 07:49:16;;;;;;;28.58;16.83;;;1.00;96.60;;;;;;4989600;28;20048;-76
2022/11/18 07:51:42;;;;;;;24.58;16.02;;;1.10;96.60;;;;;;4999277;28;20034;-76
2022/11/18 07:54:12;;;;;;;27.30;15.52;;;1.10;96.70;;;;;;5002027;28;20108;-76
2022/11/18 07:56:38;;;;;;;23.30;14.15;;;1.10;96.60;;;;;;4987820;28;20087;-76
2022/11/18 07:59:04;;;;;;;24.30;14.02;;;1.10;96.30;;;;;;5003561;28;20116;-76
2022/11/18 08:01:30;;;;;;;24.25;14.18;;;1.10;96.50;;;;;;5007570;28;20052;-76
2022/11/18 08:04:02;;;;;;;25.42;14.15;;;1.10;96.40;;;;;;5007760;28;20040;-76
2022/11/18 08:06:28;;;;;;;20.80;12.73;;;1.20;96.40;;;;;;5007793;28;20033;-76
2022/11/18 08:08:53;;;;;;;20.10;12.25;;;1.10;96.20;;;;;;5007013;28;20390;-76
2022/11/18 08:11:19;;;;;;;20.27;12.10;;;1.10;96.00;;;;;;5007459;28;20310;-76
2022/11/18 08:13:44;;;;;;;18.88;11.10;;;1.10;96.10;;;;;;5008062;28;20037;-76
2022/11/18 08:16:17;;;;;;;18.52;11.73;;;1.10;95.80;;;;;;5004884;28;20052;-76
2022/11/18 08:18:43;;;;;;;16.23;10.43;;;1.20;96.00;;;;;;4989992;28;20037;-76
2022/11/18 08:21:09;;;;;;;19.30;11.55;;;1.10;95.80;;;;;;5007464;28;20053;-76
2022/11/18 08:23:34;;;;;;;18.23;11.38;;;1.10;95.50;;;;;;5006331;28;20025;-76
2022/11/18 08:26:09;;;;;;;17.40;10.90;;;1.10;95.60;;;;;;5011182;28;20505;-77
2022/11/18 08:28:35;;;;;;;19.38;12.32;;;1.10;95.70;;;;;;5012623;28;20038;-76
2022/11/18 08:31:11;;;;;;;19.38;11.25;;;1.20;95.70;;;;;;5000695;28;20049;-76
2022/11/18 08:33:37;;;;;;;21.50;13.63;;;1.20;95.80;;;;;;5007925;28;20037;-76
2022/11/18 08:36:13;;;;;;;21.73;13.45;;;1.10;95.70;;;;;;5001122;28;20175;-76
2022/11/18 08:38:39;;;;;;;19.95;13.25;;;1.10;95.40;;;;;;5008169;28;20029;-76
2022/11/18 08:41:06;;;;;;;20.05;12.85;;;1.20;95.60;;;;;;5007165;28;20358;-76
2022/11/18 08:43:33;;;;;;;20.48;12.98;;;1.10;95.40;;;;;;5004973;28;20029;-76
2022/11/18 08:45:59;;;;;;;22.83;14.25;;;1.10;95.30;;;;;;5007762;28;20041;-76
2022/11/18 08:48:24;;;;;;;24.58;14.57;;;1.10;95.30;;;;;;4978900;28;20030;-76
2022/11/18 08:50:50;;;;;;;26.88;15.05;;;1.10;95.10;;;;;;5006627;28;20450;-76
2022/11/18 08:53:16;;;;;;;23.38;14.32;;;1.10;95.00;;;;;;5005956;28;20144;-76
2022/11/18 08:55:41;;;;;;;25.48;14.73;;;1.10;95.00;;;;;;5005024;28;20066;-77
2022/11/18 08:58:07;;;;;;;22.77;13.50;;;1.20;95.20;;;;;;4997777;28;20149;-76
2022/11/18 09:00:32;;;;;;;26.33;15.68;;;1.20;95.10;;;;;;5003735;28;20033;-76
2022/11/18 09:02:58;;;;;;;25.05;14.52;;;1.10;94.50;;;;;;5018504;28;20040;-76
2022/11/18 09:05:23;;;;;;;25.23;15.88;;;1.00;94.20;;;;;;5013997;28;20432;-76
2022/11/18 09:07:48;;;;;;;23.35;14.55;;;1.20;94.70;;;;;;5005281;28;20395;-76
2022/11/18 09:10:15;;;;;;;24.92;14.45;;;1.10;94.60;;;;;;5013312;28;20036;-76
2022/11/18 09:12:40;;;;;;;26.27;16.08;;;1.00;94.50;;;;;;4994529;28;20585;-76
2022/11/18 09:15:07;;;;;;;24.92;14.68;;;1.10;94.60;;;;;;5013820;28;20080;-76
2022/11/18 09:17:33;;;;;;;27.48;16.45;;;1.10;94.80;;;;;;5012954;28;20030;-76
2022/11/18 09:19:58;;;;;;;24.65;15.77;;;1.10;94.90;;;;;;5008496;28;20477;-76
2022/11/18 09:22:24;;;;;;;25.77;15.32;;;1.10;95.00;;;;;;5010198;28;20088;-76
2022/11/18 09:24:49;;;;;;;24.63;15.57;;;1.10;95.10;;;;;;5011752;28;20056;-76
2022/11/18 09:27:15;;;;;;;26.50;15.55;;;1.10;95.10;;;;;;5005461;28;20046;-76
2022/11/18 09:29:40;;;;;;;27.08;15.80;;;1.10;95.00;;;;;;5007920;28;20069;-76
2022/11/18 09:32:06;;;;;;;29.35;16.85;;;1.10;95.10;;;;;;5006683;28;20091;-76
2022/11/18 09:34:33;;;;;;;27.17;16.52;;;1.00;94.70;;;;;;5006013;28;20144;-76
2022/11/18 09:36:59;;;;;;;27.88;16.50;;;1.10;95.00;;;;;;4999553;28;20029;-76
2022/11/18 09:39:24;;;;;;;25.10;16.00;;;1.10;94.90;;;;;;4996686;28;20030;-76
2022/11/18 09:41:56;;;;;;;28.33;16.75;;;1.10;95.20;;;;;;5004636;28;20041;-76
2022/11/18 09:44:59;;;;;;;30.67;17.42;;;1.10;95.40;;;;;;4984973;28;20038;-76
2022/11/18 09:47:30;;;;;;;28.25;16.63;;;1.10;95.40;;;;;;4947184;28;20038;-76
2022/11/18 09:50:06;;;;;;;29.98;16.48;;;1.00;95.40;;;;;;5001741;28;20068;-76
2022/11/18 09:52:45;;;;;;;28.08;16.27;;;1.00;95.50;;;;;;5009024;28;20429;-75
2022/11/18 09:55:13;;;;;;;28.20;16.65;;;1.00;95.50;;;;;;5009408;28;20102;-76
2022/11/18 09:57:43;;;;;;;28.92;16.38;;;1.00;95.70;;;;;;5003959;28;20049;-76
2022/11/18 10:00:21;;;;;;;25.97;15.77;;;1.10;95.80;;;;;;4990701;28;20028;-76
2022/11/18 10:02:51;;;;;;;28.42;17.08;;;1.00;95.80;;;;;;4989643;28;20773;-76
2022/11/18 10:05:22;;;;;;;25.35;15.02;;;0.90;95.80;;;;;;5009426;28;20048;-76
2022/11/18 10:08:14;;;;;;;27.58;16.73;;;0.90;96.10;;;;;;5003316;28;20481;-76
2022/11/18 10:11:08;;;;;;;28.70;17.02;;;0.80;96.30;;;;;;5010386;28;20109;-76
2022/11/18 10:14:11;;;;;;;27.55;16.17;;;0.90;96.40;;;;;;5007689;28;20051;-76
2022/11/18 10:16:51;;;;;;;28.80;16.42;;;0.90;96.60;;;;;;5006861;28;20050;-76
2022/11/18 10:19:50;;;;;;;31.00;17.02;;;0.90;96.60;;;;;;5006271;28;20519;-76
2022/11/18 10:22:28;;;;;;;27.92;16.10;;;0.90;96.70;;;;;;4954093;28;20054;-76
2022/11/18 10:24:56;;;;;;;28.25;17.25;;;0.90;96.70;;;;;;4999907;28;20022;-75
2022/11/18 10:27:25;;;;;;;26.65;16.02;;;0.90;96.70;;;;;;4971244;28;20145;-76
2022/11/18 10:29:54;;;;;;;27.67;16.88;;;0.90;96.50;;;;;;4993586;28;20111;-76
2022/11/18 10:32:19;;;;;;;30.10;17.40;;;0.90;96.50;;;;;;5007839;28;20026;-76
2022/11/18 10:34:51;;;;;;;31.70;17.40;;;0.90;96.50;;;;;;5005775;28;20046;-76
2022/11/18 10:37:28;;;;;;;30.50;17.30;;;0.90;96.50;;;;;;5007453;28;20144;-76
2022/11/18 10:39:59;;;;;;;30.98;17.77;;;0.90;96.40;;;;;;5006765;28;20030;-76
2022/11/18 10:42:35;;;;;;;28.65;16.52;;;0.80;96.10;;;;;;5005570;28;20416;-76
2022/11/18 10:45:21;;;;;;;26.70;15.98;;;0.90;96.30;;;;;;5007475;28;20116;-76
2022/11/18 10:47:55;;;;;;;30.40;17.63;;;0.90;96.10;;;;;;5004447;28;20026;-76
2022/11/18 10:50:32;;;;;;;31.10;18.08;;;0.90;96.10;;;;;;5002895;28;20072;-75
2022/11/18 10:52:57;;;;;;;29.17;17.55;;;0.90;95.90;;;;;;5009488;28;20044;-76
2022/11/18 10:55:28;;;;;;;27.10;16.33;;;0.90;95.80;;;;;;5010158;28;20440;-76
2022/11/18 10:58:07;;;;;;;27.77;17.30;;;0.80;95.30;;;;;;5001981;28;20085;-76
2022/11/18 11:00:37;;;;;;;25.80;16.13;;;0.90;95.40;;;;;;5009732;28;20131;-76
2022/11/18 11:03:28;;;;;;;28.02;17.25;;;0.80;94.90;;;;;;5009681;28;20125;-75
2022/11/18 11:06:12;;;;;;;;;;;0.80;94.70;;;;;;4991000;28;20034;-76
2022/11/18 11:08:51;;;;;;;25.55;15.20;;;0.90;95.00;;;;;;5002968;28;19913;-76
2022/11/18 11:11:27;;;;;;;30.30;16.50;;;0.90;94.60;;;;;;4986972;28;20531;-76
2022/11/18 11:14:20;;;;;;;27.42;15.95;;;1.00;94.90;;;;;;5002103;28;20026;-76
2022/11/18 11:17:19;;;;;;;27.63;15.85;;;0.90;94.60;;;;;;5003749;28;20030;-76
2022/11/18 11:19:55;;;;;;;27.70;16.08;;;0.90;94.40;;;;;;5002709;28;20359;-76
2022/11/18 11:22:21;;;;;;;27.13;15.80;;;1.00;94.10;;;;;;5010331;28;20497;-76
2022/11/18 11:24:47;;;;;;;25.15;15.32;;;0.90;94.00;;;;;;5007039;28;20135;-77
2022/11/18 11:27:21;;;;;;;27.63;17.13;;;1.00;94.10;;;;;;5007137;28;20057;-77
2022/11/18 11:29:52;;;;;;;23.67;15.50;;;1.00;93.70;;;;;;5013592;28;20525;-76
2022/11/18 11:32:40;;;;;;;25.88;15.40;;;1.00;93.50;;;;;;5009576;28;20037;-76
2022/11/18 11:35:28;;;;;;;28.00;16.10;;;1.00;93.60;;;;;;5004150;28;20079;-77
2022/11/18 11:37:59;;;;;;;24.52;15.02;;;1.00;93.20;;;;;;5004529;28;20038;-77
2022/11/18 11:40:41;;;;;;;23.83;14.30;;;1.10;93.40;;;;;;5008101;28;20096;-76
2022/11/18 11:43:23;;;;;;;26.65;15.13;;;1.10;93.10;;;;;;5004332;28;20052;-77
2022/11/18 11:46:06;;;;;;;27.08;14.68;;;1.10;92.50;;;;;;5010104;28;20038;-76
2022/11/18 11:48:31;;;;;;;22.45;14.23;;;1.00;91.50;;;;;;5001807;28;20091;-76
2022/11/18 11:51:15;;;;;;;25.38;14.23;;;1.10;92.20;;;;;;5004330;28;20105;-76
2022/11/18 11:54:02;;;;;;;22.23;13.18;;;1.10;91.80;;;;;;5013500;28;20195;-76
2022/11/18 11:56:53;;;;;;;22.33;12.98;;;1.20;91.70;;;;;;5003028;28;20038;-76
2022/11/18 11:59:30;;;;;;;21.15;12.75;;;1.20;91.60;;;;;;5003835;28;20116;-76
2022/11/18 12:02:33;;;;;;;23.27;12.80;;;1.20;91.40;;;;;;5009383;28;20457;-76
2022/11/18 12:05:22;;;;;;;19.85;11.85;;;1.20;90.40;;;;;;5006810;28;20124;-76
2022/11/18 12:07:55;;;;;;;20.80;11.63;;;1.20;90.60;;;;;;4991205;28;20057;-76
2022/11/18 12:10:29;;;;;;;19.88;10.95;;;1.30;91.00;;;;;;5013686;28;20411;-76
2022/11/18 12:13:24;;;;;;;18.20;11.77;;;1.40;90.40;;;;;;4988836;28;20041;-76
2022/11/18 12:16:11;;;;;;;22.75;13.05;;;1.30;90.20;;;;;;5005494;28;20375;-76
2022/11/18 12:18:47;;;;;;;17.65;11.98;;;1.30;89.20;;;;;;5010525;28;20320;-76
2022/11/18 12:21:42;;;;;;;19.83;12.93;;;1.30;90.00;;;;;;5006748;28;20056;-76
2022/11/18 12:24:30;;;;;;;16.67;11.45;;;1.40;89.80;;;;;;5005662;28;20069;-76
2022/11/18 12:27:12;;;;;;;17.63;11.40;;;1.40;90.10;;;;;;5003442;28;20116;-75
2022/11/18 12:29:42;;;;;;;21.13;11.90;;;1.40;90.50;;;;;;5011244;28;20104;-75
2022/11/18 12:32:29;;;;;;;18.85;12.05;;;1.40;90.30;;;;;;5003528;28;20042;-75
2022/11/18 12:35:20;;;;;;;20.10;11.88;;;1.30;90.50;;;;;;5004261;28;20033;-76
2022/11/18 12:37:51;;;;;;;;;;;1.30;90.50;;;;;;5008395;28;20120;-75
2022/11/18 12:40:36;;;;;;;18.10;11.32;;;1.30;90.70;;;;;;5005697;28;19952;-75
2022/11/18 12:45:57;;;;;;;16.92;9.80;;;1.20;90.40;;;;;;5002924;28;20469;-75
2022/11/18 12:48:23;;;;;;;18.15;10.77;;;1.30;90.70;;;;;;5004818;28;20038;-75
2022/11/18 12:50:51;;;;;;;17.35;9.98;;;1.20;90.30;;;;;;5006970;28;20034;-76
2022/11/18 12:53:40;;;;;;;17.75;10.07;;;1.20;89.90;;;;;;5005701;28;20107;-76
2022/11/18 12:56:25;;;;;;;14.15;9.70;;;1.20;90.30;;;;;;5005520;28;20053;-76
2022/11/18 12:58:59;;;;;;;17.35;8.75;;;1.20;89.80;;;;;;4994267;28;20151;-74
2022/11/18 13:01:29;;;;;;;16.00;9.18;;;1.20;89.40;;;;;;5004203;28;20038;-72
2022/11/18 13:04:13;;;;;;;15.38;10.23;;;1.10;89.00;;;;;;5012586;28;20125;-73
2022/11/18 13:06:39;;;;;;;16.70;9.75;;;1.20;89.20;;;;;;5003346;28;20034;-73
2022/11/18 13:09:14;;;;;;;14.90;9.68;;;1.30;89.40;;;;;;4999711;28;20056;-72
2022/11/18 13:11:52;;;;;;;15.50;8.77;;;1.20;88.40;;;;;;5001933;28;20567;-76
2022/11/18 13:20:34;;;;;;;13.13;8.23;;;1.20;88.90;;;;;;5006782;28;20049;-73
2022/11/18 13:25:54;;;;;;;13.07;9.00;;;1.10;88.60;;;;;;5009349;28;20185;-73
2022/11/18 13:28:19;;;;;;;13.23;8.50;;;1.10;88.40;;;;;;5001126;28;20526;-72
2022/11/18 13:30:53;;;;;;;13.95;8.23;;;1.20;88.90;;;;;;5004417;28;20045;-72